Time;durP1;ratioP1;P1;durP2;ratioP2;P2;SDS_P1;SDS_P2;PMS_P1;PMS_P2;Temp;Humidity;BMP_temperature;BMP_pressure;BME280_temperature;BME280_humidity;BME280_pressure;Samples;Min_cycle;Max_cycle;Signal;HPM_P1;HPM_P2
2021/12/24 00:01:15;;;;;;;14.77;9.38;;;;;;;;;;5081714;28;20075;-38
2021/12/24 00:03:41;;;;;;;13.85;9.32;;;;;;;;;;5079956;28;20144;-33
2021/12/24 00:06:08;;;;;;;14.63;9.85;;;;;;;;;;5081938;28;20012;-36
2021/12/24 00:08:34;;;;;;;14.05;9.50;;;;;;;;;;5085962;28;20320;-36
2021/12/24 00:11:02;;;;;;;16.13;10.30;;;;;;;;;;5083926;28;20107;-33
2021/12/24 00:13:29;;;;;;;13.43;9.68;;;;;;;;;;5088728;28;20038;-33
2021/12/24 00:18:39;;;;;;;14.88;9.85;;;;;;;;;;5089096;28;20029;-34
2021/12/24 00:37:16;;;;;;;13.10;9.43;;;;;;;;;;5077468;28;20418;-36
2021/12/24 00:39:53;;;;;;;12.57;8.60;;;;;;;;;;5087917;28;20024;-35
2021/12/24 00:42:19;;;;;;;13.70;8.70;;;;;;;;;;5084338;28;20024;-36
2021/12/24 00:44:45;;;;;;;12.75;8.73;;;;;;;;;;5087404;28;20127;-34
2021/12/24 00:47:11;;;;;;;12.75;8.50;;;;;;;;;;5080944;28;20537;-32
2021/12/24 00:49:37;;;;;;;15.05;8.40;;;;;;;;;;5087594;28;20102;-33
2021/12/24 00:52:19;;;;;;;14.23;8.75;;;;;;;;;;5082926;28;20046;-36
2021/12/24 00:55:06;;;;;;;12.65;8.43;;;;;;;;;;5082542;28;20024;-34
2021/12/24 00:57:36;;;;;;;14.02;9.52;;;;;;;;;;5081021;28;20050;-35
2021/12/24 01:00:06;;;;;;;13.48;8.43;;;;;;;;;;5087310;28;20043;-33
2021/12/24 01:02:32;;;;;;;13.00;7.82;;;;;;;;;;5082605;28;20108;-31
2021/12/24 01:04:58;;;;;;;12.13;8.63;;;;;;;;;;5086752;28;20038;-37
2021/12/24 01:07:25;;;;;;;11.82;7.65;;;;;;;;;;5081880;28;20930;-33
2021/12/24 01:09:51;;;;;;;12.45;8.55;;;;;;;;;;5081628;28;20530;-40
2021/12/24 01:12:17;;;;;;;12.18;7.93;;;;;;;;;;5086975;28;20028;-33
2021/12/24 01:14:46;;;;;;;11.20;7.55;;;;;;;;;;5082845;28;20031;-35
2021/12/24 01:17:38;;;;;;;12.23;7.40;;;;;;;;;;5083402;28;20446;-37
2021/12/24 01:20:17;;;;;;;11.57;8.18;;;;;;;;;;5082338;28;20686;-35
2021/12/24 01:39:05;;;;;;;12.02;7.78;;;;;;;;;;5078696;28;20040;-34
2021/12/24 01:44:16;;;;;;;10.13;7.30;;;;;;;;;;5079181;28;20043;-36
2021/12/24 01:46:42;;;;;;;12.23;7.40;;;;;;;;;;5083314;28;20525;-36
2021/12/24 01:49:10;;;;;;;10.88;7.30;;;;;;;;;;5098334;28;20080;-34
2021/12/24 01:51:36;;;;;;;11.02;7.25;;;;;;;;;;5103081;28;20675;-37
2021/12/24 01:54:02;;;;;;;10.77;7.28;;;;;;;;;;5094601;28;20026;-38
2021/12/24 01:56:28;;;;;;;10.35;7.28;;;;;;;;;;5105686;28;20043;-35
2021/12/24 01:58:54;;;;;;;9.50;6.50;;;;;;;;;;5088930;28;20036;-33
2021/12/24 02:01:25;;;;;;;10.80;7.15;;;;;;;;;;5089693;28;20020;-36
2021/12/24 02:03:51;;;;;;;11.07;7.32;;;;;;;;;;5100002;28;20081;-33
2021/12/24 02:06:17;;;;;;;11.95;6.85;;;;;;;;;;5090200;28;20036;-36
2021/12/24 02:08:43;;;;;;;10.38;6.95;;;;;;;;;;5104792;28;20110;-36
2021/12/24 02:11:11;;;;;;;12.27;7.65;;;;;;;;;;5109056;28;20550;-33
2021/12/24 02:13:38;;;;;;;10.18;7.00;;;;;;;;;;5095480;27;20072;-35
2021/12/24 02:16:15;;;;;;;9.82;6.30;;;;;;;;;;5108838;28;20089;-36
2021/12/24 02:29:21;;;;;;;9.55;6.20;;;;;;;;;;5096983;28;20066;-33
2021/12/24 02:31:47;;;;;;;11.07;6.82;;;;;;;;;;5108967;28;20153;-38
2021/12/24 02:34:13;;;;;;;10.60;6.40;;;;;;;;;;5095726;28;20189;-33
2021/12/24 02:36:39;;;;;;;10.75;6.25;;;;;;;;;;5108083;28;20070;-35
2021/12/24 02:39:06;;;;;;;10.15;6.55;;;;;;;;;;5095964;28;20064;-33
2021/12/24 02:41:32;;;;;;;9.85;6.18;;;;;;;;;;5103657;28;20066;-36
2021/12/24 02:43:58;;;;;;;9.95;5.80;;;;;;;;;;5089579;28;20035;-34
2021/12/24 02:46:39;;;;;;;8.60;5.47;;;;;;;;;;5105789;28;20528;-35
2021/12/24 02:49:13;;;;;;;9.23;6.18;;;;;;;;;;5102723;28;20456;-33
2021/12/24 02:54:25;;;;;;;9.55;5.90;;;;;;;;;;5101758;28;20043;-35
2021/12/24 02:56:54;;;;;;;8.80;5.93;;;;;;;;;;5081347;28;20514;-34
2021/12/24 02:59:26;;;;;;;9.80;5.88;;;;;;;;;;5089376;28;20473;-35
2021/12/24 03:01:53;;;;;;;10.93;6.70;;;;;;;;;;5090964;28;20157;-38
2021/12/24 03:04:19;;;;;;;10.85;6.85;;;;;;;;;;5094985;28;20057;-34
2021/12/24 03:06:49;;;;;;;9.23;5.90;;;;;;;;;;5093151;28;20436;-35
2021/12/24 03:09:16;;;;;;;9.57;5.85;;;;;;;;;;5092972;28;20103;-37
2021/12/24 03:11:43;;;;;;;7.93;5.63;;;;;;;;;;5085202;28;20032;-33
2021/12/24 03:14:09;;;;;;;9.13;5.80;;;;;;;;;;5078979;28;20055;-35
2021/12/24 03:16:36;;;;;;;8.65;5.90;;;;;;;;;;5097598;28;20043;-37
2021/12/24 03:19:03;;;;;;;8.82;6.07;;;;;;;;;;5088086;28;20116;-32
2021/12/24 03:21:39;;;;;;;9.57;5.53;;;;;;;;;;5098901;28;20077;-35
2021/12/24 03:26:31;;;;;;;8.50;5.15;;;;;;;;;;5099064;28;20584;-34
2021/12/24 03:28:58;;;;;;;9.85;6.53;;;;;;;;;;5087847;28;20024;-38
2021/12/24 03:31:24;;;;;;;10.77;6.00;;;;;;;;;;5099626;28;20073;-35
2021/12/24 03:33:53;;;;;;;9.13;6.15;;;;;;;;;;5087542;28;20028;-35
2021/12/24 03:36:20;;;;;;;8.20;5.40;;;;;;;;;;5100820;28;20040;-34
2021/12/24 03:38:46;;;;;;;8.65;5.85;;;;;;;;;;5110495;28;20544;-32
2021/12/24 03:41:12;;;;;;;10.32;5.40;;;;;;;;;;5098819;28;20024;-33
2021/12/24 03:43:38;;;;;;;8.73;5.70;;;;;;;;;;5112056;28;20085;-34
2021/12/24 03:46:11;;;;;;;7.85;4.93;;;;;;;;;;5106007;28;20059;-35
2021/12/24 03:56:31;;;;;;;7.80;4.78;;;;;;;;;;5088879;28;20063;-34
2021/12/24 03:58:57;;;;;;;7.45;4.43;;;;;;;;;;5070705;28;20028;-36
2021/12/24 04:01:24;;;;;;;9.38;5.15;;;;;;;;;;5095250;28;20372;-36
2021/12/24 04:03:50;;;;;;;7.65;5.00;;;;;;;;;;5111218;28;20114;-31
2021/12/24 04:06:16;;;;;;;8.00;5.32;;;;;;;;;;5104979;28;20107;-32
2021/12/24 04:08:42;;;;;;;8.25;4.72;;;;;;;;;;5104551;28;20051;-31
2021/12/24 04:11:08;;;;;;;8.18;5.20;;;;;;;;;;5106916;28;20035;-35
2021/12/24 04:13:34;;;;;;;8.23;4.82;;;;;;;;;;5102498;28;20092;-37
2021/12/24 04:16:01;;;;;;;6.88;4.85;;;;;;;;;;5097018;28;20104;-32
2021/12/24 04:26:31;;;;;;;8.50;4.80;;;;;;;;;;5105371;28;20522;-34
2021/12/24 04:28:58;;;;;;;8.55;5.53;;;;;;;;;;5100542;28;20114;-32
2021/12/24 04:31:37;;;;;;;8.73;4.97;;;;;;;;;;5109074;28;20024;-34
2021/12/24 04:34:04;;;;;;;7.97;4.95;;;;;;;;;;5089222;28;20027;-35
2021/12/24 04:39:30;;;;;;;7.30;4.40;;;;;;;;;;5103790;27;20450;-31
2021/12/24 05:01:40;;;;;;;7.47;4.68;;;;;;;;;;5088482;28;20520;-37
2021/12/24 05:04:09;;;;;;;6.90;4.43;;;;;;;;;;5099267;28;20104;-31
2021/12/24 05:06:41;;;;;;;6.68;3.90;;;;;;;;;;5090011;28;20421;-32
2021/12/24 05:09:10;;;;;;;8.45;4.18;;;;;;;;;;5093542;28;20120;-33
2021/12/24 05:11:36;;;;;;;7.10;4.35;;;;;;;;;;5080082;28;20028;-35
2021/12/24 05:14:03;;;;;;;7.68;4.10;;;;;;;;;;5100040;28;20047;-36
2021/12/24 05:21:42;;;;;;;6.95;4.10;;;;;;;;;;5088973;28;20115;-39
2021/12/24 05:24:08;;;;;;;7.10;4.47;;;;;;;;;;5088504;28;20085;-32
2021/12/24 05:26:35;;;;;;;6.90;3.85;;;;;;;;;;5100563;28;20462;-35
2021/12/24 05:29:02;;;;;;;7.25;4.05;;;;;;;;;;5095302;28;20157;-38
2021/12/24 05:31:29;;;;;;;8.02;4.35;;;;;;;;;;5106840;28;20505;-36
2021/12/24 05:33:55;;;;;;;7.60;4.38;;;;;;;;;;5104151;28;20024;-36
2021/12/24 05:36:21;;;;;;;7.15;4.43;;;;;;;;;;5091788;28;20104;-35
2021/12/24 05:38:47;;;;;;;6.68;4.20;;;;;;;;;;5086017;28;20031;-35
2021/12/24 05:41:14;;;;;;;8.02;4.47;;;;;;;;;;5100441;28;20035;-36
2021/12/24 05:43:40;;;;;;;9.35;3.97;;;;;;;;;;5082970;28;21353;-35
2021/12/24 05:46:06;;;;;;;6.70;4.13;;;;;;;;;;5100490;28;20032;-35
2021/12/24 05:48:32;;;;;;;9.32;4.63;;;;;;;;;;5088990;28;20111;-35
2021/12/24 05:50:58;;;;;;;7.97;4.75;;;;;;;;;;5097696;28;20059;-33
2021/12/24 05:53:27;;;;;;;7.13;3.85;;;;;;;;;;5088092;28;20083;-35
2021/12/24 05:55:53;;;;;;;6.85;4.28;;;;;;;;;;5089610;28;20374;-38
2021/12/24 05:58:19;;;;;;;10.48;4.38;;;;;;;;;;5109684;27;20019;-34
2021/12/24 06:00:48;;;;;;;9.38;3.70;;;;;;;;;;5103196;28;20102;-36
2021/12/24 06:03:14;;;;;;;16.15;6.35;;;;;;;;;;5082639;28;20024;-33
2021/12/24 06:05:40;;;;;;;16.98;6.47;;;;;;;;;;5089510;28;20031;-39
2021/12/24 06:08:06;;;;;;;17.02;6.05;;;;;;;;;;5076301;28;20502;-38
2021/12/24 06:10:33;;;;;;;11.77;6.00;;;;;;;;;;5080444;28;20151;-35
2021/12/24 06:12:59;;;;;;;11.68;5.10;;;;;;;;;;5076474;28;20016;-35
2021/12/24 06:15:26;;;;;;;12.82;5.18;;;;;;;;;;5081908;28;20135;-38
2021/12/24 06:17:55;;;;;;;12.13;5.47;;;;;;;;;;5096707;27;20039;-36
2021/12/24 06:20:21;;;;;;;9.98;4.80;;;;;;;;;;5090434;28;20028;-35
2021/12/24 06:22:47;;;;;;;12.85;4.80;;;;;;;;;;5098445;28;20055;-36
2021/12/24 06:25:14;;;;;;;10.75;4.43;;;;;;;;;;5089924;28;20071;-39
2021/12/24 06:27:40;;;;;;;10.25;4.72;;;;;;;;;;5099731;28;20458;-40
2021/12/24 06:30:07;;;;;;;11.10;5.15;;;;;;;;;;5089693;28;20107;-33
2021/12/24 06:32:33;;;;;;;11.82;4.18;;;;;;;;;;5099786;28;20020;-35
2021/12/24 06:34:59;;;;;;;10.07;4.47;;;;;;;;;;5076017;28;20081;-32
2021/12/24 06:37:25;;;;;;;9.70;4.07;;;;;;;;;;5100361;28;20047;-34
2021/12/24 06:39:51;;;;;;;9.07;4.18;;;;;;;;;;5088307;28;20032;-39
2021/12/24 06:42:17;;;;;;;11.55;3.92;;;;;;;;;;5083812;28;20104;-32
2021/12/24 06:44:44;;;;;;;13.30;4.22;;;;;;;;;;5099218;28;20111;-36
2021/12/24 06:47:10;;;;;;;11.70;4.20;;;;;;;;;;5091617;28;20038;-33
2021/12/24 06:49:36;;;;;;;12.68;3.80;;;;;;;;;;5090097;28;20541;-35
2021/12/24 06:52:02;;;;;;;9.52;4.10;;;;;;;;;;5091766;28;20116;-34
2021/12/24 06:54:30;;;;;;;12.95;4.22;;;;;;;;;;5101427;28;20019;-33
2021/12/24 06:56:56;;;;;;;12.55;3.60;;;;;;;;;;5093651;28;20060;-32
2021/12/24 06:59:22;;;;;;;10.82;4.03;;;;;;;;;;5094521;28;20466;-36
2021/12/24 07:01:48;;;;;;;9.38;3.13;;;;;;;;;;5086060;28;20012;-38
2021/12/24 07:04:14;;;;;;;10.68;3.15;;;;;;;;;;5078779;28;20196;-37
2021/12/24 07:06:45;;;;;;;6.38;3.00;;;;;;;;;;5084447;28;20087;-36
2021/12/24 07:09:11;;;;;;;12.98;3.38;;;;;;;;;;5080025;28;20671;-36
2021/12/24 07:11:37;;;;;;;9.75;3.70;;;;;;;;;;5086360;28;20501;-36
2021/12/24 07:14:03;;;;;;;8.27;3.38;;;;;;;;;;5101191;28;20028;-33
2021/12/24 07:16:29;;;;;;;8.30;2.92;;;;;;;;;;5093320;27;20040;-35
2021/12/24 07:18:55;;;;;;;6.38;2.72;;;;;;;;;;5099672;28;20563;-36
2021/12/24 07:21:21;;;;;;;8.88;2.95;;;;;;;;;;5112423;28;20465;-36
2021/12/24 07:23:47;;;;;;;6.65;3.00;;;;;;;;;;5099003;28;20031;-38
2021/12/24 07:26:13;;;;;;;8.55;3.03;;;;;;;;;;5112066;27;20477;-34
2021/12/24 07:28:39;;;;;;;13.38;3.75;;;;;;;;;;5100649;28;20024;-33
2021/12/24 07:31:05;;;;;;;10.80;3.78;;;;;;;;;;5092922;28;20036;-33
2021/12/24 07:33:31;;;;;;;8.45;2.80;;;;;;;;;;5101289;28;20026;-34
2021/12/24 07:35:57;;;;;;;8.85;3.03;;;;;;;;;;5082174;28;20036;-36
2021/12/24 07:38:23;;;;;;;6.10;3.00;;;;;;;;;;5090417;28;20027;-37
2021/12/24 07:40:50;;;;;;;8.00;3.30;;;;;;;;;;5092532;28;20470;-36
2021/12/24 07:43:16;;;;;;;7.32;2.67;;;;;;;;;;5090047;28;20024;-36
2021/12/24 07:45:44;;;;;;;6.70;2.75;;;;;;;;;;5099855;28;20020;-36
2021/12/24 07:48:15;;;;;;;8.50;3.00;;;;;;;;;;5095752;28;20102;-35
2021/12/24 07:53:10;;;;;;;7.60;2.88;;;;;;;;;;5090372;27;20054;-35
2021/12/24 07:55:37;;;;;;;6.55;2.72;;;;;;;;;;5101928;28;20083;-32
2021/12/24 07:58:04;;;;;;;9.80;2.85;;;;;;;;;;5091517;28;20058;-34
2021/12/24 08:00:30;;;;;;;8.65;2.63;;;;;;;;;;5100429;28;20540;-32
2021/12/24 08:02:57;;;;;;;5.82;2.55;;;;;;;;;;5104009;28;20035;-36
2021/12/24 08:05:25;;;;;;;7.75;2.63;;;;;;;;;;5092897;28;20025;-33
2021/12/24 08:07:52;;;;;;;10.00;2.30;;;;;;;;;;5079714;28;20035;-38
2021/12/24 08:10:18;;;;;;;10.30;2.92;;;;;;;;;;5089378;28;20103;-35
2021/12/24 08:12:44;;;;;;;8.27;3.00;;;;;;;;;;5078773;28;20028;-35
2021/12/24 08:15:10;;;;;;;6.32;2.30;;;;;;;;;;5083116;28;20058;-32
2021/12/24 08:17:36;;;;;;;5.22;2.45;;;;;;;;;;5084198;28;20447;-40
2021/12/24 08:20:04;;;;;;;7.18;2.70;;;;;;;;;;5089447;28;20020;-37
2021/12/24 08:22:30;;;;;;;9.25;2.95;;;;;;;;;;5082055;28;20062;-38
2021/12/24 08:24:56;;;;;;;8.68;2.70;;;;;;;;;;5080025;28;20052;-32
2021/12/24 08:27:22;;;;;;;7.95;2.47;;;;;;;;;;5079722;28;20390;-35
2021/12/24 08:29:48;;;;;;;9.15;2.80;;;;;;;;;;5085187;28;20092;-33
2021/12/24 08:32:15;;;;;;;7.28;3.22;;;;;;;;;;5084670;28;20103;-33
2021/12/24 08:34:43;;;;;;;10.30;2.55;;;;;;;;;;5083120;28;20048;-32
2021/12/24 08:37:09;;;;;;;7.65;2.38;;;;;;;;;;5081540;28;20044;-35
2021/12/24 08:39:35;;;;;;;8.40;2.50;;;;;;;;;;5081521;28;20028;-36
2021/12/24 08:42:01;;;;;;;8.32;2.70;;;;;;;;;;5085620;28;20028;-37
2021/12/24 08:44:29;;;;;;;9.63;2.45;;;;;;;;;;5079886;28;20027;-36
2021/12/24 08:46:57;;;;;;;5.32;2.17;;;;;;;;;;5083418;28;20144;-35
2021/12/24 08:49:26;;;;;;;8.10;2.50;;;;;;;;;;5079546;28;20861;-36
2021/12/24 08:51:52;;;;;;;10.00;2.33;;;;;;;;;;5090400;28;20032;-32
2021/12/24 08:54:18;;;;;;;10.27;2.83;;;;;;;;;;5077778;28;20115;-34
2021/12/24 08:56:45;;;;;;;9.93;2.40;;;;;;;;;;5079652;28;20540;-31
2021/12/24 08:59:11;;;;;;;5.68;2.70;;;;;;;;;;5080858;28;20013;-34
2021/12/24 09:01:37;;;;;;;5.88;2.47;;;;;;;;;;5087169;28;20031;-36
2021/12/24 09:04:03;;;;;;;8.98;2.22;;;;;;;;;;5080776;28;20048;-33
2021/12/24 09:06:29;;;;;;;6.10;2.20;;;;;;;;;;5088634;28;20107;-35
2021/12/24 09:08:55;;;;;;;7.35;2.85;;;;;;;;;;5085540;28;20472;-34
2021/12/24 09:11:21;;;;;;;6.05;2.13;;;;;;;;;;5094687;28;20107;-33
2021/12/24 09:13:47;;;;;;;9.45;2.70;;;;;;;;;;5096423;28;20020;-35
2021/12/24 09:16:13;;;;;;;8.48;2.70;;;;;;;;;;5091479;28;20393;-38
2021/12/24 09:18:41;;;;;;;7.20;2.17;;;;;;;;;;5110021;28;20457;-36
2021/12/24 09:21:14;;;;;;;8.25;2.30;;;;;;;;;;5103431;28;20154;-38
2021/12/24 09:23:42;;;;;;;6.95;2.10;;;;;;;;;;5071059;28;20032;-35
2021/12/24 09:26:09;;;;;;;14.07;2.97;;;;;;;;;;5073841;28;20038;-35
2021/12/24 09:28:35;;;;;;;10.88;2.03;;;;;;;;;;5088049;28;20126;-34
2021/12/24 09:31:01;;;;;;;7.20;2.50;;;;;;;;;;5083043;28;20052;-34
2021/12/24 09:33:27;;;;;;;10.13;2.55;;;;;;;;;;5095904;28;20158;-37
2021/12/24 09:35:53;;;;;;;7.88;2.60;;;;;;;;;;5108277;28;20110;-35
2021/12/24 09:38:19;;;;;;;10.05;2.83;;;;;;;;;;5103900;28;20161;-37
2021/12/24 09:40:46;;;;;;;9.27;2.33;;;;;;;;;;5086624;28;20099;-35
2021/12/24 09:43:14;;;;;;;10.93;2.58;;;;;;;;;;5093083;28;20081;-38
2021/12/24 09:45:43;;;;;;;6.97;2.45;;;;;;;;;;5109228;28;20047;-35
2021/12/24 09:48:09;;;;;;;9.05;2.60;;;;;;;;;;5099258;28;20042;-34
2021/12/24 09:50:35;;;;;;;8.55;2.20;;;;;;;;;;5106787;28;20106;-39
2021/12/24 09:53:01;;;;;;;7.03;2.42;;;;;;;;;;5101482;28;20039;-33
2021/12/24 09:55:29;;;;;;;10.25;2.30;;;;;;;;;;5093411;27;20066;-35
2021/12/24 09:57:56;;;;;;;8.88;2.33;;;;;;;;;;5091544;28;20378;-34
2021/12/24 10:00:23;;;;;;;7.07;2.20;;;;;;;;;;5092917;28;20080;-38
2021/12/24 10:02:54;;;;;;;10.05;2.30;;;;;;;;;;5091287;28;20465;-31
2021/12/24 10:05:25;;;;;;;8.80;3.03;;;;;;;;;;5103674;28;20111;-34
2021/12/24 10:07:51;;;;;;;8.30;2.30;;;;;;;;;;5107473;28;20020;-32
2021/12/24 10:10:25;;;;;;;7.57;2.00;;;;;;;;;;5087596;28;20107;-31
2021/12/24 10:12:52;;;;;;;8.93;2.58;;;;;;;;;;5090549;28;20095;-37
2021/12/24 10:15:18;;;;;;;9.80;2.42;;;;;;;;;;5100006;28;20024;-31
2021/12/24 10:17:45;;;;;;;12.18;3.15;;;;;;;;;;5089486;28;20047;-36
2021/12/24 10:20:15;;;;;;;14.07;2.80;;;;;;;;;;5099557;28;20024;-31
2021/12/24 10:22:41;;;;;;;;;;;;;;;;;;5081997;28;20597;-29
2021/12/24 10:25:10;;;;;;;9.07;2.67;;;;;;;;;;5100150;28;20072;-33
2021/12/24 10:27:38;;;;;;;11.27;2.58;;;;;;;;;;5087180;28;20024;-29
2021/12/24 10:30:21;;;;;;;11.60;2.92;;;;;;;;;;5099071;28;20084;-30
2021/12/24 10:32:48;;;;;;;8.45;2.15;;;;;;;;;;5086904;28;20819;-29
2021/12/24 10:35:25;;;;;;;7.45;2.55;;;;;;;;;;5097786;28;20492;-30
2021/12/24 10:38:09;;;;;;;8.70;2.78;;;;;;;;;;5072090;28;20052;-31
2021/12/24 10:40:35;;;;;;;10.10;2.50;;;;;;;;;;5094895;28;20116;-32
2021/12/24 10:43:01;;;;;;;6.35;1.90;;;;;;;;;;5108581;28;20030;-29
2021/12/24 10:45:28;;;;;;;10.30;2.80;;;;;;;;;;5099850;28;20107;-29
2021/12/24 10:47:54;;;;;;;10.60;2.90;;;;;;;;;;5087735;28;20511;-30
2021/12/24 10:55:24;;;;;;;8.73;2.30;;;;;;;;;;5089422;28;19923;-31
2021/12/24 10:57:53;;;;;;;9.93;2.67;;;;;;;;;;5105525;28;20052;-30
2021/12/24 11:00:34;;;;;;;9.25;2.50;;;;;;;;;;5100141;28;20120;-30
2021/12/24 11:03:05;;;;;;;8.93;2.10;;;;;;;;;;5087892;28;20032;-32
2021/12/24 11:05:38;;;;;;;8.05;2.13;;;;;;;;;;5082600;28;20438;-30
2021/12/24 11:08:06;;;;;;;10.25;3.17;;;;;;;;;;5076306;28;20028;-30
2021/12/24 11:10:33;;;;;;;8.38;2.40;;;;;;;;;;5080479;28;20107;-31
2021/12/24 11:13:07;;;;;;;7.47;2.55;;;;;;;;;;5078306;28;20061;-30
2021/12/24 11:15:37;;;;;;;11.30;3.05;;;;;;;;;;5088187;28;20122;-29
2021/12/24 11:18:05;;;;;;;10.70;2.85;;;;;;;;;;5084202;28;20115;-31
2021/12/24 11:20:32;;;;;;;8.02;2.85;;;;;;;;;;5081966;28;20039;-30
2021/12/24 11:23:09;;;;;;;8.18;2.60;;;;;;;;;;5092633;28;20069;-30
2021/12/24 11:25:37;;;;;;;9.98;2.28;;;;;;;;;;5078371;28;20036;-30
2021/12/24 11:28:03;;;;;;;10.65;2.63;;;;;;;;;;5096958;28;20151;-33
2021/12/24 11:30:29;;;;;;;9.70;2.60;;;;;;;;;;5081804;28;20115;-33
2021/12/24 11:32:56;;;;;;;10.77;2.30;;;;;;;;;;5099208;28;20048;-30
2021/12/24 11:35:22;;;;;;;13.20;2.50;;;;;;;;;;5090237;28;20024;-28
2021/12/24 11:37:49;;;;;;;17.33;3.55;;;;;;;;;;5100031;28;20180;-29
2021/12/24 11:40:20;;;;;;;12.77;2.90;;;;;;;;;;5080825;28;20423;-29
2021/12/24 11:42:52;;;;;;;12.32;3.42;;;;;;;;;;5099694;28;20103;-32
2021/12/24 11:45:20;;;;;;;11.32;3.60;;;;;;;;;;5068955;28;20043;-30
2021/12/24 11:47:46;;;;;;;13.35;3.30;;;;;;;;;;5091613;28;20028;-31
2021/12/24 11:50:12;;;;;;;11.90;3.03;;;;;;;;;;5077087;28;20017;-29
2021/12/24 11:52:40;;;;;;;14.73;3.13;;;;;;;;;;5096123;28;20425;-29
2021/12/24 11:55:06;;;;;;;11.27;2.65;;;;;;;;;;5108839;28;20056;-33
2021/12/24 11:57:32;;;;;;;10.27;3.35;;;;;;;;;;5097448;28;20489;-30
2021/12/24 12:00:09;;;;;;;7.75;2.70;;;;;;;;;;5109031;28;20027;-32
2021/12/24 12:02:53;;;;;;;10.35;2.90;;;;;;;;;;5102434;28;20111;-29
2021/12/24 12:05:23;;;;;;;15.85;3.75;;;;;;;;;;5112279;28;20030;-29
2021/12/24 12:07:50;;;;;;;19.50;4.70;;;;;;;;;;5101858;28;20033;-31
2021/12/24 12:10:38;;;;;;;10.27;3.05;;;;;;;;;;5109949;28;20106;-31
2021/12/24 12:13:04;;;;;;;9.57;3.33;;;;;;;;;;5100716;28;20055;-32
2021/12/24 12:15:31;;;;;;;12.23;3.10;;;;;;;;;;5083592;28;20033;-32
2021/12/24 12:17:58;;;;;;;15.18;3.60;;;;;;;;;;5092868;28;20042;-29
2021/12/24 12:20:44;;;;;;;15.73;3.08;;;;;;;;;;5095719;28;20517;-29
2021/12/24 12:23:30;;;;;;;14.52;3.03;;;;;;;;;;5093484;28;20092;-30
2021/12/24 12:25:56;;;;;;;14.70;3.30;;;;;;;;;;5111182;28;20035;-29
2021/12/24 12:28:26;;;;;;;13.85;3.25;;;;;;;;;;5100467;28;20470;-30
2021/12/24 12:30:54;;;;;;;12.45;3.03;;;;;;;;;;5081723;28;20136;-30
2021/12/24 12:33:30;;;;;;;10.32;3.03;;;;;;;;;;5089940;28;20088;-29
2021/12/24 12:35:57;;;;;;;11.25;3.33;;;;;;;;;;5095501;28;20055;-29
2021/12/24 12:38:26;;;;;;;12.65;3.63;;;;;;;;;;5097949;28;20040;-29
2021/12/24 12:40:53;;;;;;;10.57;3.65;;;;;;;;;;5097327;28;20119;-31
2021/12/24 12:43:20;;;;;;;15.00;3.42;;;;;;;;;;5095159;28;20456;-30
2021/12/24 12:45:47;;;;;;;11.80;2.75;;;;;;;;;;5099618;28;20131;-29
2021/12/24 12:48:22;;;;;;;13.63;3.28;;;;;;;;;;5095169;28;20061;-35
2021/12/24 12:50:53;;;;;;;10.35;3.40;;;;;;;;;;5102091;28;20395;-32
2021/12/24 12:53:34;;;;;;;11.05;3.20;;;;;;;;;;5104104;28;20173;-32
2021/12/24 12:56:09;;;;;;;10.85;2.65;;;;;;;;;;5070243;28;20052;-32
2021/12/24 12:58:35;;;;;;;16.60;3.75;;;;;;;;;;5078916;28;20111;-30
2021/12/24 13:01:01;;;;;;;15.77;3.60;;;;;;;;;;5100767;28;20017;-30
2021/12/24 13:03:27;;;;;;;10.32;3.00;;;;;;;;;;5091970;28;20020;-33
2021/12/24 13:05:58;;;;;;;9.63;2.90;;;;;;;;;;5099978;28;20023;-30
2021/12/24 13:08:25;;;;;;;12.30;3.20;;;;;;;;;;5084916;28;20021;-35
2021/12/24 13:10:56;;;;;;;9.48;3.25;;;;;;;;;;5081357;28;20517;-30
2021/12/24 13:13:22;;;;;;;12.35;2.65;;;;;;;;;;5096417;28;20386;-29
2021/12/24 13:15:48;;;;;;;8.90;2.75;;;;;;;;;;5101742;28;20081;-30
2021/12/24 13:18:28;;;;;;;9.65;2.42;;;;;;;;;;5077174;28;20594;-30
2021/12/24 13:23:33;;;;;;;6.68;2.55;;;;;;;;;;5090315;28;20020;-30
2021/12/24 13:26:14;;;;;;;11.20;3.40;;;;;;;;;;5095278;28;20052;-29
2021/12/24 13:28:58;;;;;;;7.68;2.53;;;;;;;;;;5111127;28;20115;-30
2021/12/24 13:31:25;;;;;;;15.57;3.28;;;;;;;;;;5103655;28;20032;-34
2021/12/24 13:33:51;;;;;;;9.20;2.72;;;;;;;;;;5090276;28;20076;-30
2021/12/24 13:36:21;;;;;;;27.10;8.85;;;;;;;;;;5102656;28;20039;-30
2021/12/24 13:38:47;;;;;;;40.17;23.75;;;;;;;;;;5090339;28;20032;-30
2021/12/24 13:41:13;;;;;;;46.92;27.45;;;;;;;;;;5102909;28;20032;-31
2021/12/24 13:43:39;;;;;;;49.85;30.98;;;;;;;;;;5069939;28;20027;-34
2021/12/24 13:46:08;;;;;;;45.97;32.25;;;;;;;;;;5092504;28;20698;-30
2021/12/24 13:48:50;;;;;;;52.35;32.45;;;;;;;;;;5092972;28;20023;-33
2021/12/24 13:56:38;;;;;;;45.10;30.75;;;;;;;;;;5095999;28;20086;-34
2021/12/24 13:59:04;;;;;;;43.28;32.28;;;;;;;;;;5089205;28;20027;-36
2021/12/24 14:01:31;;;;;;;50.60;29.73;;;;;;;;;;5089835;28;20070;-29
2021/12/24 14:03:57;;;;;;;46.53;29.38;;;;;;;;;;5103053;28;20551;-28
2021/12/24 14:06:34;;;;;;;46.05;28.95;;;;;;;;;;5099772;28;20727;-29
2021/12/24 14:09:33;;;;;;;47.60;30.33;;;;;;;;;;5102415;28;20034;-29
2021/12/24 14:12:00;;;;;;;47.85;29.65;;;;;;;;;;5074144;28;20048;-33
2021/12/24 14:14:39;;;;;;;44.63;28.73;;;;;;;;;;5107498;28;20028;-31
2021/12/24 14:20:05;;;;;;;41.53;28.42;;;;;;;;;;5090997;28;20036;-29
2021/12/24 14:22:32;;;;;;;45.00;28.90;;;;;;;;;;5093294;28;20032;-29
2021/12/24 14:25:08;;;;;;;43.60;28.13;;;;;;;;;;5109267;28;20020;-34
2021/12/24 14:27:35;;;;;;;45.03;29.40;;;;;;;;;;5097893;28;20028;-29
2021/12/24 14:30:10;;;;;;;40.63;29.30;;;;;;;;;;5088357;28;20028;-33
2021/12/24 14:32:36;;;;;;;46.65;28.33;;;;;;;;;;5094691;28;20035;-32
2021/12/24 14:35:15;;;;;;;43.88;28.02;;;;;;;;;;5082902;28;20071;-34
2021/12/24 14:37:43;;;;;;;42.10;28.37;;;;;;;;;;5082311;28;20036;-34
2021/12/24 14:40:09;;;;;;;45.05;26.60;;;;;;;;;;5076072;28;20390;-31
2021/12/24 14:42:38;;;;;;;44.63;27.85;;;;;;;;;;5087309;28;20115;-24
2021/12/24 14:45:13;;;;;;;38.50;28.40;;;19.70;74.30;;;;;;5104062;28;20020;-25
2021/12/24 14:47:39;;;;;;;44.55;27.58;;;19.60;74.30;;;;;;5105664;28;20019;-26
2021/12/24 14:50:08;;;;;;;37.85;26.98;;;19.30;74.10;;;;;;5095614;27;20020;-26
2021/12/24 14:52:34;;;;;;;39.80;26.55;;;19.00;74.70;;;;;;5092185;28;20036;-25
2021/12/24 14:55:17;;;;;;;36.42;24.90;;;18.80;75.30;;;;;;5095634;28;20908;-25
2021/12/24 14:57:51;;;;;;;31.38;24.17;;;18.60;75.70;;;;;;5092277;28;20024;-26
2021/12/24 15:00:19;;;;;;;35.28;24.05;;;18.50;76.00;;;;;;5094146;28;20020;-25
2021/12/24 15:02:48;;;;;;;37.70;23.83;;;18.40;76.30;;;;;;5092921;28;20049;-25
2021/12/24 15:05:28;;;;;;;38.92;25.38;;;;;;;;;;5097721;28;20107;-25
2021/12/24 15:07:54;;;;;;;;;;;;;;;;;;5091015;28;20036;-26
2021/12/24 15:10:20;;;;;;;32.85;22.63;;;18.40;75.80;;;;;;5099413;28;20016;-25
2021/12/24 15:12:50;;;;;;;34.20;23.30;;;18.40;76.30;;;;;;5089319;28;20505;-26
2021/12/24 15:15:17;;;;;;;38.28;21.75;;;18.40;76.20;;;;;;5100218;28;20100;-26
2021/12/24 15:17:44;;;;;;;40.25;22.67;;;18.40;76.30;;;;;;5073370;28;20036;-25
2021/12/24 15:20:12;;;;;;;32.40;20.75;;;18.40;76.50;;;;;;5100577;28;20062;-25
2021/12/24 15:22:39;;;;;;;31.17;21.20;;;18.40;76.40;;;;;;5089245;28;20126;-26
2021/12/24 15:25:06;;;;;;;28.45;18.55;;;;;;;;;;5101258;28;20017;-26
2021/12/24 15:27:35;;;;;;;30.58;18.15;;;;;;;;;;5088917;28;20051;-25
2021/12/24 15:30:03;;;;;;;33.72;18.98;;;;;;;;;;5100656;28;20084;-25
2021/12/24 15:32:29;;;;;;;28.95;18.52;;;;;;;;;;5088973;28;20028;-25
2021/12/24 15:34:55;;;;;;;29.75;18.67;;;;;;;;;;5097990;28;20032;-26
2021/12/24 15:37:21;;;;;;;26.85;16.70;;;;;;;;;;5111780;28;20346;-26
2021/12/24 15:39:47;;;;;;;23.85;16.90;;;;;;;;;;5103149;28;20028;-26
2021/12/24 15:42:15;;;;;;;26.35;15.25;;;;;;;;;;5109403;28;20114;-25
2021/12/24 15:44:45;;;;;;;24.35;16.00;;;;;;;;;;5111435;28;20466;-26
2021/12/24 15:47:11;;;;;;;22.27;15.05;;;;;;;;;;5097593;28;20046;-26
2021/12/24 15:49:38;;;;;;;22.45;15.02;;;;;;;;;;5097164;28;20095;-26
2021/12/24 15:52:04;;;;;;;26.10;15.13;;;;;;;;;;5099947;28;20135;-26
2021/12/24 15:54:30;;;;;;;23.65;14.48;;;;;;;;;;5084408;28;20107;-26
2021/12/24 15:56:56;;;;;;;19.73;13.77;;;;;;;;;;5102051;28;20139;-26
2021/12/24 15:59:23;;;;;;;25.35;13.48;;;;;;;;;;5096161;28;20115;-26
2021/12/24 16:01:49;;;;;;;21.13;12.60;;;;;;;;;;5100081;28;20023;-25
2021/12/24 16:04:15;;;;;;;19.13;12.30;;;;;;;;;;5074027;28;20120;-26
2021/12/24 16:06:41;;;;;;;20.33;12.57;;;;;;;;;;5100865;28;20027;-26
2021/12/24 16:09:07;;;;;;;18.55;12.25;;;;;;;;;;5111556;28;20373;-26
2021/12/24 16:11:33;;;;;;;19.73;12.05;;;;;;;;;;5099168;28;20047;-25
2021/12/24 16:13:59;;;;;;;21.55;10.13;;;;;;;;;;5111885;28;20639;-28
2021/12/24 16:16:25;;;;;;;61.05;20.02;;;;;;;;;;5107052;28;20461;-24
2021/12/24 16:18:52;;;;;;;67.65;24.83;;;;;;;;;;5090701;28;20370;-26
2021/12/24 16:21:18;;;;;;;61.47;22.17;;;;;;;;;;5101858;28;20043;-26
2021/12/24 16:23:45;;;;;;;55.63;21.15;;;;;;;;;;5093515;28;20091;-27
2021/12/24 16:26:11;;;;;;;58.50;22.05;;;;;;;;;;5098775;28;20058;-25
2021/12/24 16:28:37;;;;;;;57.97;20.02;;;;;;;;;;5094961;28;20027;-27
2021/12/24 16:31:04;;;;;;;46.20;19.20;;;;;;;;;;5085707;28;20019;-33